sensor_id;sensor_type;location;lat;lon;timestamp;P1;durP1;ratioP1;P2;durP2;ratioP2
41829;SDS011;38614;43.472;23.936;2022-09-16T00:02:09;5.80;;;0.35;;
41829;SDS011;38614;43.472;23.936;2022-09-16T00:04:59;7.65;;;1.60;;
41829;SDS011;38614;43.472;23.936;2022-09-16T00:07:47;8.43;;;0.43;;
41829;SDS011;38614;43.472;23.936;2022-09-16T00:10:37;14.27;;;1.73;;
41829;SDS011;38614;43.472;23.936;2022-09-16T00:13:25;2.40;;;0.82;;
41829;SDS011;38614;43.472;23.936;2022-09-16T00:16:17;6.05;;;0.40;;
41829;SDS011;38614;43.472;23.936;2022-09-16T00:19:07;8.32;;;0.90;;
41829;SDS011;38614;43.472;23.936;2022-09-16T00:21:55;9.18;;;0.80;;
41829;SDS011;38614;43.472;23.936;2022-09-16T00:24:43;5.65;;;0.77;;
41829;SDS011;38614;43.472;23.936;2022-09-16T00:27:30;6.45;;;0.70;;
41829;SDS011;38614;43.472;23.936;2022-09-16T00:30:20;7.65;;;0.75;;
41829;SDS011;38614;43.472;23.936;2022-09-16T00:33:08;5.78;;;0.30;;
41829;SDS011;38614;43.472;23.936;2022-09-16T00:36:10;5.13;;;0.32;;
41829;SDS011;38614;43.472;23.936;2022-09-16T00:39:01;5.55;;;1.17;;
41829;SDS011;38614;43.472;23.936;2022-09-16T00:41:48;6.85;;;0.88;;
41829;SDS011;38614;43.472;23.936;2022-09-16T00:44:58;11.70;;;1.85;;
41829;SDS011;38614;43.472;23.936;2022-09-16T00:47:53;6.45;;;0.30;;
41829;SDS011;38614;43.472;23.936;2022-09-16T00:50:44;7.57;;;1.27;;
41829;SDS011;38614;43.472;23.936;2022-09-16T00:53:41;9.63;;;0.52;;
41829;SDS011;38614;43.472;23.936;2022-09-16T00:57:16;11.32;;;1.02;;
41829;SDS011;38614;43.472;23.936;2022-09-16T01:00:11;7.85;;;0.65;;
41829;SDS011;38614;43.472;23.936;2022-09-16T01:03:07;6.22;;;0.47;;
41829;SDS011;38614;43.472;23.936;2022-09-16T01:05:55;9.30;;;1.50;;
41829;SDS011;38614;43.472;23.936;2022-09-16T01:08:45;8.07;;;0.60;;
41829;SDS011;38614;43.472;23.936;2022-09-16T01:11:37;12.65;;;1.45;;
41829;SDS011;38614;43.472;23.936;2022-09-16T01:14:25;7.07;;;0.95;;
41829;SDS011;38614;43.472;23.936;2022-09-16T01:27:14;23.52;;;0.80;;
41829;SDS011;38614;43.472;23.936;2022-09-16T01:33:14;5.95;;;1.00;;
41829;SDS011;38614;43.472;23.936;2022-09-16T01:36:18;3.75;;;0.43;;
41829;SDS011;38614;43.472;23.936;2022-09-16T01:42:28;6.53;;;0.50;;
41829;SDS011;38614;43.472;23.936;2022-09-16T01:45:39;10.38;;;0.73;;
41829;SDS011;38614;43.472;23.936;2022-09-16T01:48:36;13.85;;;1.30;;
41829;SDS011;38614;43.472;23.936;2022-09-16T01:54:31;10.82;;;1.00;;
41829;SDS011;38614;43.472;23.936;2022-09-16T01:57:40;6.57;;;1.40;;
41829;SDS011;38614;43.472;23.936;2022-09-16T02:01:00;12.50;;;1.13;;
41829;SDS011;38614;43.472;23.936;2022-09-16T02:03:56;7.97;;;0.40;;
41829;SDS011;38614;43.472;23.936;2022-09-16T02:09:39;7.57;;;0.35;;
41829;SDS011;38614;43.472;23.936;2022-09-16T02:12:33;11.48;;;1.48;;
41829;SDS011;38614;43.472;23.936;2022-09-16T02:15:24;5.00;;;0.68;;
41829;SDS011;38614;43.472;23.936;2022-09-16T02:18:17;11.88;;;0.75;;
41829;SDS011;38614;43.472;23.936;2022-09-16T02:21:09;13.10;;;0.77;;
41829;SDS011;38614;43.472;23.936;2022-09-16T02:24:02;8.52;;;0.85;;
41829;SDS011;38614;43.472;23.936;2022-09-16T02:26:56;7.45;;;0.82;;
41829;SDS011;38614;43.472;23.936;2022-09-16T02:29:50;18.13;;;0.50;;
41829;SDS011;38614;43.472;23.936;2022-09-16T02:32:45;8.43;;;1.17;;
41829;SDS011;38614;43.472;23.936;2022-09-16T02:35:40;12.63;;;1.20;;
41829;SDS011;38614;43.472;23.936;2022-09-16T02:38:37;13.13;;;1.40;;
41829;SDS011;38614;43.472;23.936;2022-09-16T02:41:35;17.02;;;2.00;;
41829;SDS011;38614;43.472;23.936;2022-09-16T02:44:27;8.30;;;0.60;;
41829;SDS011;38614;43.472;23.936;2022-09-16T02:47:16;5.88;;;0.95;;
41829;SDS011;38614;43.472;23.936;2022-09-16T02:56:39;18.00;;;1.05;;
41829;SDS011;38614;43.472;23.936;2022-09-16T02:59:28;7.57;;;0.40;;
41829;SDS011;38614;43.472;23.936;2022-09-16T03:02:16;20.60;;;1.77;;
41829;SDS011;38614;43.472;23.936;2022-09-16T03:05:03;15.88;;;1.10;;
41829;SDS011;38614;43.472;23.936;2022-09-16T03:07:52;7.75;;;0.65;;
41829;SDS011;38614;43.472;23.936;2022-09-16T03:10:41;5.97;;;0.82;;
41829;SDS011;38614;43.472;23.936;2022-09-16T03:13:39;16.00;;;0.93;;
41829;SDS011;38614;43.472;23.936;2022-09-16T03:17:07;12.05;;;0.85;;
41829;SDS011;38614;43.472;23.936;2022-09-16T03:26:09;11.27;;;1.05;;
41829;SDS011;38614;43.472;23.936;2022-09-16T03:35:36;7.50;;;1.35;;
41829;SDS011;38614;43.472;23.936;2022-09-16T03:38:29;12.02;;;0.63;;
41829;SDS011;38614;43.472;23.936;2022-09-16T03:41:20;12.65;;;0.80;;
41829;SDS011;38614;43.472;23.936;2022-09-16T03:44:08;12.68;;;1.15;;
41829;SDS011;38614;43.472;23.936;2022-09-16T03:46:56;15.23;;;1.40;;
41829;SDS011;38614;43.472;23.936;2022-09-16T03:49:48;14.02;;;1.02;;
41829;SDS011;38614;43.472;23.936;2022-09-16T03:52:37;7.00;;;0.63;;
41829;SDS011;38614;43.472;23.936;2022-09-16T03:55:25;6.72;;;0.80;;
41829;SDS011;38614;43.472;23.936;2022-09-16T03:58:13;6.40;;;1.08;;
41829;SDS011;38614;43.472;23.936;2022-09-16T04:01:00;7.78;;;0.77;;
41829;SDS011;38614;43.472;23.936;2022-09-16T04:03:50;15.68;;;1.50;;
41829;SDS011;38614;43.472;23.936;2022-09-16T04:06:38;15.20;;;1.98;;
41829;SDS011;38614;43.472;23.936;2022-09-16T04:09:26;18.60;;;1.23;;
41829;SDS011;38614;43.472;23.936;2022-09-16T04:12:17;8.05;;;1.23;;
41829;SDS011;38614;43.472;23.936;2022-09-16T04:15:05;22.02;;;1.73;;
41829;SDS011;38614;43.472;23.936;2022-09-16T04:17:52;4.47;;;0.60;;
41829;SDS011;38614;43.472;23.936;2022-09-16T04:20:42;14.00;;;1.45;;
41829;SDS011;38614;43.472;23.936;2022-09-16T04:23:30;12.57;;;1.65;;
41829;SDS011;38614;43.472;23.936;2022-09-16T04:26:18;8.63;;;0.93;;
41829;SDS011;38614;43.472;23.936;2022-09-16T04:29:06;5.85;;;0.82;;
41829;SDS011;38614;43.472;23.936;2022-09-16T04:31:53;13.80;;;1.17;;
41829;SDS011;38614;43.472;23.936;2022-09-16T04:34:41;10.93;;;1.23;;
41829;SDS011;38614;43.472;23.936;2022-09-16T04:37:29;18.13;;;1.90;;
41829;SDS011;38614;43.472;23.936;2022-09-16T04:40:17;11.95;;;1.23;;
41829;SDS011;38614;43.472;23.936;2022-09-16T04:43:05;12.70;;;1.13;;
41829;SDS011;38614;43.472;23.936;2022-09-16T04:45:53;9.18;;;1.30;;
41829;SDS011;38614;43.472;23.936;2022-09-16T04:48:41;13.43;;;0.73;;
41829;SDS011;38614;43.472;23.936;2022-09-16T04:51:35;11.10;;;1.27;;
41829;SDS011;38614;43.472;23.936;2022-09-16T04:54:22;8.32;;;0.52;;
41829;SDS011;38614;43.472;23.936;2022-09-16T04:57:10;10.20;;;0.95;;
41829;SDS011;38614;43.472;23.936;2022-09-16T04:59:57;10.15;;;0.77;;
41829;SDS011;38614;43.472;23.936;2022-09-16T05:02:50;14.95;;;1.40;;
41829;SDS011;38614;43.472;23.936;2022-09-16T05:05:40;10.30;;;0.60;;
41829;SDS011;38614;43.472;23.936;2022-09-16T05:08:28;13.55;;;1.65;;
41829;SDS011;38614;43.472;23.936;2022-09-16T05:11:19;7.18;;;1.27;;
41829;SDS011;38614;43.472;23.936;2022-09-16T05:14:15;13.73;;;2.08;;
41829;SDS011;38614;43.472;23.936;2022-09-16T05:17:06;21.55;;;1.17;;
41829;SDS011;38614;43.472;23.936;2022-09-16T05:19:54;10.30;;;1.05;;
41829;SDS011;38614;43.472;23.936;2022-09-16T05:22:41;14.25;;;0.82;;
41829;SDS011;38614;43.472;23.936;2022-09-16T05:25:32;11.07;;;1.10;;
41829;SDS011;38614;43.472;23.936;2022-09-16T05:28:21;9.05;;;1.23;;
41829;SDS011;38614;43.472;23.936;2022-09-16T05:37:03;9.32;;;0.98;;
41829;SDS011;38614;43.472;23.936;2022-09-16T05:39:51;13.52;;;0.73;;
41829;SDS011;38614;43.472;23.936;2022-09-16T05:42:38;8.20;;;0.98;;
41829;SDS011;38614;43.472;23.936;2022-09-16T05:45:26;5.97;;;0.85;;
41829;SDS011;38614;43.472;23.936;2022-09-16T05:48:21;10.90;;;0.85;;
41829;SDS011;38614;43.472;23.936;2022-09-16T05:51:09;14.30;;;2.33;;
41829;SDS011;38614;43.472;23.936;2022-09-16T05:54:06;7.55;;;0.50;;
41829;SDS011;38614;43.472;23.936;2022-09-16T05:56:53;9.93;;;1.02;;
41829;SDS011;38614;43.472;23.936;2022-09-16T05:59:41;7.38;;;1.00;;
41829;SDS011;38614;43.472;23.936;2022-09-16T06:02:29;9.75;;;0.73;;
41829;SDS011;38614;43.472;23.936;2022-09-16T06:05:19;4.82;;;0.50;;
41829;SDS011;38614;43.472;23.936;2022-09-16T06:08:06;20.63;;;1.60;;
41829;SDS011;38614;43.472;23.936;2022-09-16T06:10:54;6.15;;;1.08;;
41829;SDS011;38614;43.472;23.936;2022-09-16T06:13:42;10.32;;;1.85;;
41829;SDS011;38614;43.472;23.936;2022-09-16T06:16:30;8.02;;;1.65;;
41829;SDS011;38614;43.472;23.936;2022-09-16T06:19:19;9.70;;;0.50;;
41829;SDS011;38614;43.472;23.936;2022-09-16T06:22:12;5.30;;;0.63;;
41829;SDS011;38614;43.472;23.936;2022-09-16T06:25:08;8.93;;;1.17;;
41829;SDS011;38614;43.472;23.936;2022-09-16T06:31:05;6.97;;;1.75;;
41829;SDS011;38614;43.472;23.936;2022-09-16T06:33:56;7.65;;;0.95;;
41829;SDS011;38614;43.472;23.936;2022-09-16T06:36:43;2.28;;;0.57;;
41829;SDS011;38614;43.472;23.936;2022-09-16T06:39:32;7.70;;;1.23;;
41829;SDS011;38614;43.472;23.936;2022-09-16T06:42:19;9.13;;;0.70;;
41829;SDS011;38614;43.472;23.936;2022-09-16T06:45:08;18.77;;;1.00;;
41829;SDS011;38614;43.472;23.936;2022-09-16T06:47:57;15.65;;;1.60;;
41829;SDS011;38614;43.472;23.936;2022-09-16T06:50:47;5.07;;;0.55;;
41829;SDS011;38614;43.472;23.936;2022-09-16T06:53:35;6.93;;;0.85;;
41829;SDS011;38614;43.472;23.936;2022-09-16T06:56:24;15.15;;;1.27;;
41829;SDS011;38614;43.472;23.936;2022-09-16T06:59:13;10.43;;;1.42;;
41829;SDS011;38614;43.472;23.936;2022-09-16T07:02:00;12.10;;;1.40;;
41829;SDS011;38614;43.472;23.936;2022-09-16T07:04:50;7.32;;;0.93;;
41829;SDS011;38614;43.472;23.936;2022-09-16T07:07:38;15.60;;;1.25;;
41829;SDS011;38614;43.472;23.936;2022-09-16T07:10:25;10.70;;;1.13;;
41829;SDS011;38614;43.472;23.936;2022-09-16T07:13:14;14.95;;;0.82;;
41829;SDS011;38614;43.472;23.936;2022-09-16T07:16:03;7.15;;;0.68;;
41829;SDS011;38614;43.472;23.936;2022-09-16T07:19:00;5.40;;;0.55;;
41829;SDS011;38614;43.472;23.936;2022-09-16T07:22:06;10.80;;;1.38;;
41829;SDS011;38614;43.472;23.936;2022-09-16T07:24:54;4.13;;;0.50;;
41829;SDS011;38614;43.472;23.936;2022-09-16T07:27:42;11.25;;;0.57;;
41829;SDS011;38614;43.472;23.936;2022-09-16T07:30:32;12.50;;;1.95;;
41829;SDS011;38614;43.472;23.936;2022-09-16T07:33:20;4.95;;;0.47;;
41829;SDS011;38614;43.472;23.936;2022-09-16T07:36:09;4.28;;;0.50;;
41829;SDS011;38614;43.472;23.936;2022-09-16T07:38:57;7.18;;;1.05;;
41829;SDS011;38614;43.472;23.936;2022-09-16T07:41:46;9.93;;;0.77;;
41829;SDS011;38614;43.472;23.936;2022-09-16T07:44:37;5.28;;;0.60;;
41829;SDS011;38614;43.472;23.936;2022-09-16T07:47:28;13.40;;;1.00;;
41829;SDS011;38614;43.472;23.936;2022-09-16T07:50:26;7.63;;;0.90;;
41829;SDS011;38614;43.472;23.936;2022-09-16T07:53:14;5.72;;;0.55;;
41829;SDS011;38614;43.472;23.936;2022-09-16T07:56:03;4.25;;;0.60;;
41829;SDS011;38614;43.472;23.936;2022-09-16T07:58:53;3.92;;;0.80;;
41829;SDS011;38614;43.472;23.936;2022-09-16T08:01:41;4.95;;;0.35;;
41829;SDS011;38614;43.472;23.936;2022-09-16T08:04:29;4.93;;;0.90;;
41829;SDS011;38614;43.472;23.936;2022-09-16T08:07:17;3.92;;;0.32;;
41829;SDS011;38614;43.472;23.936;2022-09-16T08:10:05;3.25;;;0.60;;
41829;SDS011;38614;43.472;23.936;2022-09-16T08:12:53;9.75;;;1.60;;
41829;SDS011;38614;43.472;23.936;2022-09-16T08:15:40;14.45;;;1.00;;
41829;SDS011;38614;43.472;23.936;2022-09-16T08:18:30;6.53;;;1.17;;
41829;SDS011;38614;43.472;23.936;2022-09-16T08:21:19;7.32;;;0.85;;
41829;SDS011;38614;43.472;23.936;2022-09-16T08:24:09;10.18;;;0.43;;
41829;SDS011;38614;43.472;23.936;2022-09-16T08:26:57;4.95;;;0.45;;
41829;SDS011;38614;43.472;23.936;2022-09-16T08:29:44;4.65;;;0.38;;
41829;SDS011;38614;43.472;23.936;2022-09-16T08:32:32;7.35;;;0.68;;
41829;SDS011;38614;43.472;23.936;2022-09-16T08:35:20;9.70;;;0.77;;
41829;SDS011;38614;43.472;23.936;2022-09-16T08:38:07;3.15;;;0.80;;
41829;SDS011;38614;43.472;23.936;2022-09-16T08:40:57;8.75;;;0.88;;
41829;SDS011;38614;43.472;23.936;2022-09-16T08:50:28;9.32;;;1.13;;
41829;SDS011;38614;43.472;23.936;2022-09-16T08:56:11;14.73;;;0.73;;
41829;SDS011;38614;43.472;23.936;2022-09-16T08:59:03;7.10;;;0.45;;
41829;SDS011;38614;43.472;23.936;2022-09-16T09:02:01;2.78;;;0.45;;
41829;SDS011;38614;43.472;23.936;2022-09-16T09:04:55;4.63;;;0.30;;
41829;SDS011;38614;43.472;23.936;2022-09-16T09:10:51;12.68;;;1.00;;
41829;SDS011;38614;43.472;23.936;2022-09-16T09:28:46;6.07;;;0.63;;
41829;SDS011;38614;43.472;23.936;2022-09-16T09:40:57;4.38;;;0.75;;
41829;SDS011;38614;43.472;23.936;2022-09-16T09:47:28;3.50;;;0.45;;
41829;SDS011;38614;43.472;23.936;2022-09-16T09:53:17;2.42;;;0.30;;
41829;SDS011;38614;43.472;23.936;2022-09-16T10:03:11;4.53;;;0.50;;
41829;SDS011;38614;43.472;23.936;2022-09-16T10:06:04;15.52;;;1.15;;
41829;SDS011;38614;43.472;23.936;2022-09-16T10:08:54;4.78;;;0.30;;
41829;SDS011;38614;43.472;23.936;2022-09-16T10:11:49;8.27;;;0.63;;
41829;SDS011;38614;43.472;23.936;2022-09-16T10:14:44;3.40;;;0.75;;
41829;SDS011;38614;43.472;23.936;2022-09-16T10:17:32;7.85;;;0.40;;
41829;SDS011;38614;43.472;23.936;2022-09-16T10:23:11;10.05;;;0.63;;
41829;SDS011;38614;43.472;23.936;2022-09-16T10:26:21;4.20;;;0.75;;
41829;SDS011;38614;43.472;23.936;2022-09-16T10:29:15;7.07;;;0.38;;
41829;SDS011;38614;43.472;23.936;2022-09-16T10:32:05;8.55;;;0.80;;
41829;SDS011;38614;43.472;23.936;2022-09-16T10:34:58;3.88;;;0.85;;
41829;SDS011;38614;43.472;23.936;2022-09-16T10:37:56;7.28;;;0.50;;
41829;SDS011;38614;43.472;23.936;2022-09-16T10:40:52;3.63;;;0.70;;
41829;SDS011;38614;43.472;23.936;2022-09-16T10:43:52;5.90;;;0.60;;
41829;SDS011;38614;43.472;23.936;2022-09-16T10:46:51;11.88;;;0.70;;
41829;SDS011;38614;43.472;23.936;2022-09-16T10:49:46;10.65;;;0.35;;
41829;SDS011;38614;43.472;23.936;2022-09-16T10:55:31;5.75;;;0.63;;
41829;SDS011;38614;43.472;23.936;2022-09-16T11:04:03;7.55;;;0.65;;
41829;SDS011;38614;43.472;23.936;2022-09-16T11:16:15;15.70;;;0.63;;
41829;SDS011;38614;43.472;23.936;2022-09-16T11:22:35;8.75;;;0.50;;
41829;SDS011;38614;43.472;23.936;2022-09-16T11:29:41;5.60;;;0.73;;
41829;SDS011;38614;43.472;23.936;2022-09-16T11:35:34;12.65;;;1.02;;
41829;SDS011;38614;43.472;23.936;2022-09-16T11:38:29;4.15;;;1.00;;
41829;SDS011;38614;43.472;23.936;2022-09-16T11:47:35;6.03;;;1.90;;
41829;SDS011;38614;43.472;23.936;2022-09-16T11:56:37;5.60;;;1.23;;
41829;SDS011;38614;43.472;23.936;2022-09-16T12:03:07;9.55;;;1.02;;
41829;SDS011;38614;43.472;23.936;2022-09-16T12:06:16;10.93;;;1.38;;
41829;SDS011;38614;43.472;23.936;2022-09-16T12:09:11;7.45;;;0.85;;
41829;SDS011;38614;43.472;23.936;2022-09-16T12:12:12;9.35;;;1.55;;
41829;SDS011;38614;43.472;23.936;2022-09-16T12:15:23;10.65;;;1.45;;
41829;SDS011;38614;43.472;23.936;2022-09-16T12:21:10;8.02;;;0.65;;
41829;SDS011;38614;43.472;23.936;2022-09-16T12:30:26;11.35;;;0.70;;
41829;SDS011;38614;43.472;23.936;2022-09-16T12:33:22;9.23;;;0.98;;
41829;SDS011;38614;43.472;23.936;2022-09-16T12:36:14;5.90;;;0.75;;
41829;SDS011;38614;43.472;23.936;2022-09-16T12:39:09;6.95;;;1.08;;
41829;SDS011;38614;43.472;23.936;2022-09-16T14:31:40;5.60;;;0.20;;
41829;SDS011;38614;43.472;23.936;2022-09-16T14:34:32;6.55;;;0.75;;
41829;SDS011;38614;43.472;23.936;2022-09-16T14:37:23;5.30;;;0.40;;
41829;SDS011;38614;43.472;23.936;2022-09-16T14:40:17;5.18;;;1.00;;
41829;SDS011;38614;43.472;23.936;2022-09-16T14:43:08;7.07;;;0.20;;
41829;SDS011;38614;43.472;23.936;2022-09-16T14:46:01;3.22;;;0.30;;
41829;SDS011;38614;43.472;23.936;2022-09-16T14:48:49;0.95;;;0.10;;
41829;SDS011;38614;43.472;23.936;2022-09-16T14:51:43;1.75;;;0.10;;
41829;SDS011;38614;43.472;23.936;2022-09-16T14:54:41;3.22;;;0.25;;
41829;SDS011;38614;43.472;23.936;2022-09-16T14:57:30;2.22;;;0.20;;
41829;SDS011;38614;43.472;23.936;2022-09-16T15:00:19;4.95;;;0.10;;
41829;SDS011;38614;43.472;23.936;2022-09-16T15:03:16;8.70;;;0.15;;
41829;SDS011;38614;43.472;23.936;2022-09-16T15:06:06;1.45;;;0.45;;
41829;SDS011;38614;43.472;23.936;2022-09-16T15:09:02;2.80;;;0.20;;
41829;SDS011;38614;43.472;23.936;2022-09-16T15:11:54;3.63;;;0.10;;
41829;SDS011;38614;43.472;23.936;2022-09-16T15:14:42;5.40;;;0.20;;
41829;SDS011;38614;43.472;23.936;2022-09-16T15:17:32;2.03;;;0.20;;
41829;SDS011;38614;43.472;23.936;2022-09-16T15:20:20;1.00;;;0.43;;
41829;SDS011;38614;43.472;23.936;2022-09-16T15:23:19;1.52;;;0.17;;
41829;SDS011;38614;43.472;23.936;2022-09-16T15:29:01;3.13;;;0.17;;
41829;SDS011;38614;43.472;23.936;2022-09-16T15:31:51;6.53;;;0.43;;
41829;SDS011;38614;43.472;23.936;2022-09-16T15:34:40;4.97;;;1.15;;
41829;SDS011;38614;43.472;23.936;2022-09-16T15:37:31;17.95;;;1.98;;
41829;SDS011;38614;43.472;23.936;2022-09-16T15:40:20;5.90;;;0.28;;
41829;SDS011;38614;43.472;23.936;2022-09-16T15:43:16;4.50;;;0.22;;
41829;SDS011;38614;43.472;23.936;2022-09-16T15:46:11;3.17;;;0.60;;
41829;SDS011;38614;43.472;23.936;2022-09-16T15:49:02;5.63;;;0.47;;
41829;SDS011;38614;43.472;23.936;2022-09-16T15:52:07;0.68;;;0.15;;
41829;SDS011;38614;43.472;23.936;2022-09-16T15:54:57;2.72;;;0.30;;
41829;SDS011;38614;43.472;23.936;2022-09-16T15:57:48;1.80;;;0.20;;
41829;SDS011;38614;43.472;23.936;2022-09-16T16:01:04;2.78;;;0.45;;
41829;SDS011;38614;43.472;23.936;2022-09-16T16:04:10;3.03;;;0.10;;
41829;SDS011;38614;43.472;23.936;2022-09-16T16:07:02;4.25;;;0.25;;
41829;SDS011;38614;43.472;23.936;2022-09-16T16:09:52;1.58;;;0.20;;
41829;SDS011;38614;43.472;23.936;2022-09-16T16:12:42;3.10;;;0.20;;
41829;SDS011;38614;43.472;23.936;2022-09-16T16:15:32;3.47;;;0.28;;
41829;SDS011;38614;43.472;23.936;2022-09-16T16:18:22;4.15;;;0.10;;
41829;SDS011;38614;43.472;23.936;2022-09-16T16:21:14;0.88;;;0.10;;
41829;SDS011;38614;43.472;23.936;2022-09-16T16:24:02;6.75;;;0.50;;
41829;SDS011;38614;43.472;23.936;2022-09-16T16:26:50;4.90;;;0.10;;
41829;SDS011;38614;43.472;23.936;2022-09-16T16:29:42;2.83;;;0.60;;
41829;SDS011;38614;43.472;23.936;2022-09-16T16:32:30;11.68;;;0.45;;
41829;SDS011;38614;43.472;23.936;2022-09-16T16:35:18;3.45;;;0.60;;
41829;SDS011;38614;43.472;23.936;2022-09-16T16:38:05;3.33;;;0.22;;
41829;SDS011;38614;43.472;23.936;2022-09-16T16:40:53;8.73;;;0.88;;
41829;SDS011;38614;43.472;23.936;2022-09-16T16:43:46;7.70;;;1.55;;
41829;SDS011;38614;43.472;23.936;2022-09-16T16:46:37;3.28;;;0.60;;
41829;SDS011;38614;43.472;23.936;2022-09-16T16:49:25;1.73;;;0.20;;
41829;SDS011;38614;43.472;23.936;2022-09-16T16:52:15;1.58;;;0.50;;
41829;SDS011;38614;43.472;23.936;2022-09-16T16:55:02;9.90;;;2.13;;
41829;SDS011;38614;43.472;23.936;2022-09-16T16:57:53;10.82;;;4.72;;
41829;SDS011;38614;43.472;23.936;2022-09-16T17:00:41;12.07;;;4.80;;
41829;SDS011;38614;43.472;23.936;2022-09-16T17:06:20;12.35;;;4.47;;
41829;SDS011;38614;43.472;23.936;2022-09-16T17:09:08;6.35;;;3.25;;
41829;SDS011;38614;43.472;23.936;2022-09-16T17:12:01;10.60;;;2.78;;
41829;SDS011;38614;43.472;23.936;2022-09-16T17:14:53;11.30;;;2.78;;
41829;SDS011;38614;43.472;23.936;2022-09-16T17:17:41;9.07;;;2.20;;
41829;SDS011;38614;43.472;23.936;2022-09-16T17:20:29;8.75;;;2.65;;
41829;SDS011;38614;43.472;23.936;2022-09-16T17:23:16;10.68;;;2.60;;
41829;SDS011;38614;43.472;23.936;2022-09-16T17:26:07;9.10;;;2.20;;
41829;SDS011;38614;43.472;23.936;2022-09-16T17:28:58;10.43;;;4.38;;
41829;SDS011;38614;43.472;23.936;2022-09-16T17:31:51;9.70;;;4.30;;
41829;SDS011;38614;43.472;23.936;2022-09-16T17:34:39;10.13;;;3.65;;
41829;SDS011;38614;43.472;23.936;2022-09-16T17:37:27;16.15;;;3.58;;
41829;SDS011;38614;43.472;23.936;2022-09-16T17:40:15;11.32;;;2.97;;
41829;SDS011;38614;43.472;23.936;2022-09-16T17:43:03;11.15;;;3.58;;
41829;SDS011;38614;43.472;23.936;2022-09-16T17:45:51;17.08;;;3.20;;
41829;SDS011;38614;43.472;23.936;2022-09-16T17:48:39;10.15;;;3.30;;
41829;SDS011;38614;43.472;23.936;2022-09-16T17:51:28;16.48;;;3.78;;
41829;SDS011;38614;43.472;23.936;2022-09-16T17:54:16;18.92;;;4.53;;
41829;SDS011;38614;43.472;23.936;2022-09-16T17:57:03;9.07;;;3.63;;
41829;SDS011;38614;43.472;23.936;2022-09-16T17:59:51;9.82;;;2.70;;
41829;SDS011;38614;43.472;23.936;2022-09-16T18:02:40;12.93;;;2.17;;
41829;SDS011;38614;43.472;23.936;2022-09-16T18:05:28;4.85;;;1.77;;
41829;SDS011;38614;43.472;23.936;2022-09-16T18:08:18;7.15;;;1.92;;
41829;SDS011;38614;43.472;23.936;2022-09-16T18:11:06;11.90;;;3.58;;
41829;SDS011;38614;43.472;23.936;2022-09-16T18:13:58;9.35;;;1.40;;
41829;SDS011;38614;43.472;23.936;2022-09-16T18:16:47;13.07;;;1.52;;
41829;SDS011;38614;43.472;23.936;2022-09-16T18:19:44;7.53;;;1.10;;
41829;SDS011;38614;43.472;23.936;2022-09-16T18:22:34;7.20;;;1.17;;
41829;SDS011;38614;43.472;23.936;2022-09-16T18:25:22;10.98;;;1.27;;
41829;SDS011;38614;43.472;23.936;2022-09-16T18:28:12;10.88;;;1.38;;
41829;SDS011;38614;43.472;23.936;2022-09-16T18:31:00;9.77;;;1.20;;
41829;SDS011;38614;43.472;23.936;2022-09-16T18:33:53;2.28;;;0.65;;
41829;SDS011;38614;43.472;23.936;2022-09-16T18:36:41;6.57;;;0.93;;
41829;SDS011;38614;43.472;23.936;2022-09-16T18:39:29;3.83;;;1.23;;
41829;SDS011;38614;43.472;23.936;2022-09-16T18:42:17;10.95;;;1.15;;
41829;SDS011;38614;43.472;23.936;2022-09-16T18:45:08;7.13;;;1.47;;
41829;SDS011;38614;43.472;23.936;2022-09-16T18:47:56;11.82;;;2.55;;
41829;SDS011;38614;43.472;23.936;2022-09-16T18:50:45;3.80;;;1.25;;
41829;SDS011;38614;43.472;23.936;2022-09-16T18:53:34;13.43;;;2.03;;
41829;SDS011;38614;43.472;23.936;2022-09-16T18:56:23;8.02;;;1.67;;
41829;SDS011;38614;43.472;23.936;2022-09-16T18:59:12;6.25;;;1.63;;
41829;SDS011;38614;43.472;23.936;2022-09-16T19:02:10;4.82;;;1.45;;
41829;SDS011;38614;43.472;23.936;2022-09-16T19:05:05;3.22;;;1.02;;
41829;SDS011;38614;43.472;23.936;2022-09-16T19:07:53;5.78;;;0.80;;
41829;SDS011;38614;43.472;23.936;2022-09-16T19:10:41;6.93;;;1.38;;
41829;SDS011;38614;43.472;23.936;2022-09-16T19:13:32;5.53;;;1.98;;
41829;SDS011;38614;43.472;23.936;2022-09-16T19:16:19;8.07;;;2.35;;
41829;SDS011;38614;43.472;23.936;2022-09-16T19:19:09;9.30;;;1.67;;
41829;SDS011;38614;43.472;23.936;2022-09-16T19:21:58;13.23;;;2.67;;
41829;SDS011;38614;43.472;23.936;2022-09-16T19:24:46;12.32;;;2.38;;
41829;SDS011;38614;43.472;23.936;2022-09-16T19:27:33;9.13;;;1.98;;
41829;SDS011;38614;43.472;23.936;2022-09-16T19:30:21;16.25;;;2.45;;
41829;SDS011;38614;43.472;23.936;2022-09-16T19:33:09;5.97;;;2.05;;
41829;SDS011;38614;43.472;23.936;2022-09-16T19:35:56;10.65;;;1.83;;
41829;SDS011;38614;43.472;23.936;2022-09-16T19:38:45;8.80;;;1.35;;
41829;SDS011;38614;43.472;23.936;2022-09-16T19:41:36;5.78;;;1.58;;
41829;SDS011;38614;43.472;23.936;2022-09-16T19:44:24;4.93;;;1.73;;
41829;SDS011;38614;43.472;23.936;2022-09-16T19:47:12;18.05;;;2.55;;
41829;SDS011;38614;43.472;23.936;2022-09-16T19:49:59;8.93;;;1.55;;
41829;SDS011;38614;43.472;23.936;2022-09-16T19:52:50;4.97;;;1.58;;
41829;SDS011;38614;43.472;23.936;2022-09-16T19:55:38;10.68;;;1.27;;
41829;SDS011;38614;43.472;23.936;2022-09-16T19:58:29;7.28;;;1.10;;
41829;SDS011;38614;43.472;23.936;2022-09-16T20:01:21;3.05;;;0.80;;
41829;SDS011;38614;43.472;23.936;2022-09-16T20:04:13;6.10;;;0.60;;
41829;SDS011;38614;43.472;23.936;2022-09-16T20:07:01;3.08;;;0.82;;
41829;SDS011;38614;43.472;23.936;2022-09-16T20:09:51;4.15;;;0.60;;
41829;SDS011;38614;43.472;23.936;2022-09-16T20:12:39;3.88;;;0.50;;
41829;SDS011;38614;43.472;23.936;2022-09-16T20:15:27;4.13;;;0.50;;
41829;SDS011;38614;43.472;23.936;2022-09-16T20:18:14;3.72;;;1.00;;
41829;SDS011;38614;43.472;23.936;2022-09-16T20:21:03;1.88;;;0.35;;
41829;SDS011;38614;43.472;23.936;2022-09-16T20:23:55;8.45;;;0.88;;
41829;SDS011;38614;43.472;23.936;2022-09-16T20:26:43;4.18;;;0.70;;
41829;SDS011;38614;43.472;23.936;2022-09-16T20:29:31;3.97;;;0.60;;
41829;SDS011;38614;43.472;23.936;2022-09-16T20:32:18;2.67;;;0.30;;
41829;SDS011;38614;43.472;23.936;2022-09-16T20:35:06;2.97;;;0.32;;
41829;SDS011;38614;43.472;23.936;2022-09-16T20:37:54;2.80;;;0.35;;
41829;SDS011;38614;43.472;23.936;2022-09-16T20:40:45;2.17;;;0.32;;
41829;SDS011;38614;43.472;23.936;2022-09-16T20:43:33;7.30;;;0.38;;
41829;SDS011;38614;43.472;23.936;2022-09-16T20:46:22;8.20;;;0.63;;
41829;SDS011;38614;43.472;23.936;2022-09-16T20:49:15;14.55;;;0.68;;
41829;SDS011;38614;43.472;23.936;2022-09-16T20:52:04;4.70;;;1.17;;
41829;SDS011;38614;43.472;23.936;2022-09-16T20:54:51;9.45;;;0.60;;
41829;SDS011;38614;43.472;23.936;2022-09-16T20:57:40;12.45;;;0.80;;
41829;SDS011;38614;43.472;23.936;2022-09-16T21:00:27;8.25;;;0.88;;
41829;SDS011;38614;43.472;23.936;2022-09-16T21:03:15;8.57;;;0.70;;
41829;SDS011;38614;43.472;23.936;2022-09-16T21:06:03;9.18;;;0.15;;
41829;SDS011;38614;43.472;23.936;2022-09-16T21:08:59;7.22;;;1.20;;
41829;SDS011;38614;43.472;23.936;2022-09-16T21:11:48;5.05;;;1.00;;
41829;SDS011;38614;43.472;23.936;2022-09-16T21:14:48;3.05;;;0.30;;
41829;SDS011;38614;43.472;23.936;2022-09-16T21:17:39;8.85;;;0.30;;
41829;SDS011;38614;43.472;23.936;2022-09-16T21:21:08;3.72;;;0.20;;
41829;SDS011;38614;43.472;23.936;2022-09-16T21:24:46;6.28;;;0.50;;
41829;SDS011;38614;43.472;23.936;2022-09-16T21:31:11;7.43;;;0.95;;